Hamilton, Bermuda
Current Conditions -  °F | °C
As of 5:55 PM on Tuesday 27 Jan 2015 (Local Time) from TXKF Reporting Station
Rain Showers Rain Showers  
Wind Chill: 72°   Ceiling: 4500
Heat Index: 72°   Visibility: 6mi
Dew Point: 57°   Wind: 28mph
Humidity: 60%   Direction: 240°WSW
Pressure: 29.65"   Gusts: NA
Location:  32.3°N, 64.8°W
Report Text: TXKF 272055Z 24024KT 9999 -SHRA FEW023 SCT036 BKN045BKN080 22/14 Q1004
Loading
Personal Weather Stations






























Interactive Weather Map New forecast layout! Learn more

10-Day Weather Forecast

Advertisements
Track Severe Weather on mobile